CYYD

Smithers Airport

Smithers, , Canada
METAR CYYD 170552Z AUTO VRB08KT 9SM SCT055 BKN071 M01/M01 A2960 RMK SLP046
Observed Flight Rules
Dec-17 @ 05:52 UTC (18 minutes ago) Visual Flight Rules
Wind Visibility Clouds
Variable at 8 knots 9 miles
  • Scattered at 5,500' AGL
  • Broken at 7,100' AGL
Temperatures Readings
Current -1°C / 30°F
Dewpoint -1°C / 30°F
Humidity 100%
Altimeter 29.6" Hg
Pressure 1004.6 hPa
Elevation 523
METAR CYYD 170552Z AUTO VRB08KT 9SM SCT055 BKN071 M01/M01 A2960 RMK SLP046
Observed Flight Rules
Dec-17 @ 05:52 UTC
(18 minutes ago)
VFR
Wind Visibility
Variable at 8 knots 9 miles
Clouds
  • Scattered at 5,500' AGL
  • Broken at 7,100' AGL
Temperature Dewpoint
-1°C / 30°F -1°C / 30°F
Humidity Altimeter Pressure
100% 29.6" Hg 1004.6 hPa